Time;durP1;ratioP1;P1;durP2;ratioP2;P2;SDS_P1;SDS_P2;PMS_P1;PMS_P2;Temp;Humidity;BMP_temperature;BMP_pressure;BME280_temperature;BME280_humidity;BME280_pressure;Samples;Min_cycle;Max_cycle;Signal;HPM_P1;HPM_P2
2022/11/30 00:00:54;;;;;;;;;4.00;3.00;;;;;21.22;47.33;102096.16;5014738;28;47320;-72
2022/11/30 00:03:19;;;;;;;;;5.67;5.67;;;;;21.23;47.49;102097.00;5017223;28;45347;-73
2022/11/30 00:05:45;;;;;;;;;3.33;2.67;;;;;21.22;47.24;102098.81;5018299;28;45325;-71
2022/11/30 00:08:10;;;;;;;;;4.33;4.00;;;;;21.22;47.23;102097.97;5018398;28;45225;-71
2022/11/30 00:10:40;;;;;;;;;5.00;4.00;;;;;21.20;47.50;102092.84;5017730;28;46187;-72
2022/11/30 00:13:06;;;;;;;;;3.33;3.33;;;;;21.14;47.46;102078.34;5018197;28;45387;-72
2022/11/30 00:15:32;;;;;;;;;4.00;4.00;;;;;21.22;47.52;102097.97;5017891;28;45395;-72
2022/11/30 00:17:58;;;;;;;;;3.67;3.33;;;;;21.20;47.19;102087.53;5018222;28;45371;-72
2022/11/30 00:20:24;;;;;;;;;2.67;2.67;;;;;21.18;46.89;102087.66;5017984;28;45488;-72
2022/11/30 00:22:49;;;;;;;;;7.00;5.00;;;;;21.20;47.43;102086.69;5018126;28;45471;-72
2022/11/30 00:25:15;;;;;;;;;3.00;3.00;;;;;21.20;47.21;102084.06;5017429;28;45431;-73
2022/11/30 00:27:40;;;;;;;;;2.67;2.67;;;;;21.11;47.29;102070.69;5018034;28;45384;-72
2022/11/30 00:30:06;;;;;;;;;6.00;3.67;;;;;21.17;47.45;102074.59;5017925;28;46368;-72
2022/11/30 00:32:32;;;;;;;;;3.33;2.00;;;;;21.12;47.37;102072.38;5017870;28;45324;-71
2022/11/30 00:34:57;;;;;;;;;3.00;3.00;;;;;21.13;47.22;102076.69;5017886;28;45243;-72
2022/11/30 00:37:23;;;;;;;;;4.00;4.00;;;;;21.15;47.12;102073.91;5017914;28;45521;-72
2022/11/30 00:39:48;;;;;;;;;5.33;5.00;;;;;21.09;47.18;102063.88;5017280;28;50256;-72
2022/11/30 00:42:13;;;;;;;;;6.33;4.00;;;;;21.06;46.93;102059.72;5017889;28;45511;-72
2022/11/30 00:44:39;;;;;;;;;5.00;4.33;;;;;21.15;47.29;102069.44;5000049;28;45396;-73
2022/11/30 00:47:04;;;;;;;;;5.00;3.33;;;;;21.15;46.91;102071.25;5017700;28;45383;-72
2022/11/30 00:49:29;;;;;;;;;6.00;4.67;;;;;21.15;46.74;102072.09;5017543;28;47052;-72
2022/11/30 00:51:55;;;;;;;;;4.33;3.00;;;;;21.16;47.29;102068.47;5017445;28;45383;-71
2022/11/30 00:54:20;;;;;;;;;2.33;2.33;;;;;21.11;46.82;102059.28;5017213;28;45327;-71
2022/11/30 00:56:45;;;;;;;;;4.00;4.00;;;;;21.16;47.03;102065.81;5017666;28;45283;-71
2022/11/30 00:59:11;;;;;;;;;3.67;2.00;;;;;21.17;46.87;102064.00;5017334;28;45371;-71
2022/11/30 01:01:36;;;;;;;;;4.67;3.67;;;;;21.17;47.06;102066.66;5017456;28;45352;-70
2022/11/30 01:04:04;;;;;;;;;4.00;3.00;;;;;21.16;47.15;102057.03;5017455;28;45320;-72
2022/11/30 01:06:29;;;;;;;;;3.00;3.00;;;;;21.12;47.02;102053.84;5017481;28;45362;-72
2022/11/30 01:08:55;;;;;;;;;3.00;1.67;;;;;21.16;46.94;102064.97;5016907;28;47284;-72
2022/11/30 01:11:23;;;;;;;;;4.67;4.00;;;;;21.16;47.08;102060.50;5017318;28;45412;-71
2022/11/30 01:13:49;;;;;;;;;4.00;3.00;;;;;21.14;47.22;102059.84;5016925;28;45501;-71
2022/11/30 01:16:18;;;;;;;;;3.33;3.33;;;;;21.14;46.82;102062.47;5017076;28;45423;-70
2022/11/30 01:18:43;;;;;;;;;4.33;3.33;;;;;21.16;46.74;102054.38;5017120;28;47202;-70
2022/11/30 01:21:12;;;;;;;;;3.67;3.33;;;;;21.14;47.31;102062.47;5017084;28;45228;-73
2022/11/30 01:23:38;;;;;;;;;3.00;2.00;;;;;21.15;47.00;102063.31;5016728;28;45458;-72
2022/11/30 01:26:03;;;;;;;;;3.00;3.00;;;;;21.15;47.11;102061.50;5017158;28;45506;-72
2022/11/30 01:28:29;;;;;;;;;2.33;2.33;;;;;21.16;47.17;102062.31;5016978;28;45339;-72
2022/11/30 01:30:59;;;;;;;;;3.67;3.00;;;;;21.11;47.22;102059.28;5016962;28;45414;-72
2022/11/30 01:33:25;;;;;;;;;3.00;3.00;;;;;21.06;47.22;102046.47;5017058;28;45253;-72
2022/11/30 01:36:08;;;;;;;;;4.33;4.33;;;;;21.16;47.22;102062.31;5016824;28;45362;-73
2022/11/30 01:38:48;;;;;;;;;3.00;3.00;;;;;21.14;46.36;102056.34;5016573;28;46133;-72
2022/11/30 01:41:18;;;;;;;;;4.00;4.00;;;;;21.14;46.93;102053.69;5016779;28;45323;-73
2022/11/30 01:43:44;;;;;;;;;3.67;3.00;;;;;21.14;46.80;102059.84;5016955;28;45424;-72
2022/11/30 01:46:23;;;;;;;;;2.00;2.00;;;;;21.12;46.94;102059.16;5016640;28;45399;-72
2022/11/30 01:49:09;;;;;;;;;5.00;3.33;;;;;21.13;47.05;102058.16;5016760;28;45980;-72
2022/11/30 01:51:39;;;;;;;;;3.00;2.33;;;;;21.14;47.08;102061.63;5016617;28;45359;-71
2022/11/30 01:54:08;;;;;;;;;2.67;2.67;;;;;21.14;47.06;102061.63;5016106;28;45433;-71
2022/11/30 01:56:36;;;;;;;;;6.00;4.00;;;;;21.05;47.19;102050.94;5016727;28;45552;-72
2022/11/30 01:59:01;;;;;;;;;6.00;3.00;;;;;21.13;47.25;102063.44;5016238;28;47297;-72
2022/11/30 02:01:27;;;;;;;;;4.00;3.67;;;;;21.14;46.93;102059.00;5016396;28;45451;-72
2022/11/30 02:04:01;;;;;;;;;3.00;3.00;;;;;21.13;47.07;102066.09;5016686;28;45516;-72
2022/11/30 02:06:28;;;;;;;;;3.67;2.00;;;;;21.13;46.88;102054.69;5016099;28;45253;-72
2022/11/30 02:08:54;;;;;;;;;3.00;3.00;;;;;21.13;46.42;102060.81;5016337;28;45375;-72
2022/11/30 02:11:21;;;;;;;;;3.33;3.00;;;;;21.05;46.84;102052.78;5016281;28;45600;-72
2022/11/30 02:13:57;;;;;;;;;3.00;3.00;;;;;21.12;46.64;102059.16;5016299;28;45398;-72
2022/11/30 02:16:40;;;;;;;;;4.67;2.00;;;;;21.13;46.56;102062.63;5016229;28;45386;-72
2022/11/30 02:19:23;;;;;;;;;2.00;2.00;;;;;21.13;46.30;102067.94;5016152;28;45373;-72
2022/11/30 02:22:10;;;;;;;;;3.00;2.00;;;;;21.12;46.50;102072.38;5015765;28;45437;-72
2022/11/30 02:24:42;;;;;;;;;2.00;2.00;;;;;21.14;46.66;102074.88;5015058;28;45421;-72
2022/11/30 02:27:29;;;;;;;;;2.67;2.67;;;;;21.14;46.49;102070.41;5016083;28;45405;-72
2022/11/30 02:30:04;;;;;;;;;4.00;2.00;;;;;21.15;46.74;102069.44;5015868;28;46490;-72
2022/11/30 02:32:37;;;;;;;;;3.00;3.00;;;;;21.15;46.42;102073.91;5016030;28;45421;-72
2022/11/30 02:35:06;;;;;;;;;2.00;2.00;;;;;21.15;47.02;102076.56;5015911;28;45348;-72
2022/11/30 02:37:34;;;;;;;;;2.00;2.00;;;;;21.14;46.50;102069.59;5015719;28;45304;-72
2022/11/30 02:39:59;;;;;;;;;2.00;2.00;;;;;21.15;46.91;102071.25;5015876;28;46214;-72
2022/11/30 02:42:24;;;;;;;;;2.00;2.00;;;;;21.15;46.86;102071.25;5015836;28;45479;-72
2022/11/30 02:44:51;;;;;;;;;3.00;3.00;;;;;21.09;46.66;102064.72;5016150;28;45350;-72
2022/11/30 02:47:40;;;;;;;;;3.00;2.00;;;;;21.03;47.28;102062.63;5015911;28;45442;-72
2022/11/30 02:50:16;;;;;;;;;3.00;2.00;;;;;21.06;46.84;102063.19;5015379;28;45331;-72
2022/11/30 02:52:43;;;;;;;;;2.00;2.00;;;;;21.14;47.05;102077.53;5015584;28;45312;-72
2022/11/30 02:55:13;;;;;;;;;2.00;2.00;;;;;21.13;46.87;102079.31;5015558;28;45746;-72
2022/11/30 02:57:39;;;;;;;;;3.33;3.33;;;;;21.13;46.87;102067.94;5015643;28;45319;-72
2022/11/30 03:00:07;;;;;;;;;3.67;3.00;;;;;21.13;46.92;102075.88;5015224;28;48419;-72
2022/11/30 03:02:33;;;;;;;;;3.00;3.00;;;;;21.10;46.67;102071.69;5015513;28;45346;-72
2022/11/30 03:04:58;;;;;;;;;4.00;4.00;;;;;21.11;46.54;102070.69;5015155;28;45424;-72
2022/11/30 03:07:24;;;;;;;;;2.00;2.00;;;;;21.12;46.80;102072.38;5015634;28;45426;-72
2022/11/30 03:09:49;;;;;;;;;3.67;3.67;;;;;21.11;47.15;102075.16;5015522;28;45854;-72
2022/11/30 03:12:15;;;;;;;;;1.00;1.00;;;;;21.13;47.05;102079.31;5015573;28;45404;-72
2022/11/30 03:14:40;;;;;;;;;2.67;2.67;;;;;21.12;46.81;102071.53;5015525;28;45431;-72
2022/11/30 03:17:05;;;;;;;;;2.00;2.00;;;;;21.11;46.68;102075.16;5015473;28;45403;-72
2022/11/30 03:19:32;;;;;;;;;3.00;3.00;;;;;21.01;46.67;102060.16;5014984;28;46140;-72
2022/11/30 03:21:57;;;;;;;;;4.67;3.67;;;;;21.11;46.70;102073.34;5015318;28;45395;-73
2022/11/30 03:24:22;;;;;;;;;2.00;2.00;;;;;21.11;46.57;102076.00;5015418;28;45311;-72
2022/11/30 03:26:48;;;;;;;;;3.00;3.00;;;;;21.09;46.59;102075.31;5015399;28;45343;-72
2022/11/30 03:29:13;;;;;;;;;4.00;3.00;;;;;21.11;46.91;102081.28;5015295;28;46071;-72
2022/11/30 03:31:38;;;;;;;;;3.67;3.67;;;;;21.00;47.05;102066.38;5015400;28;45157;-72
2022/11/30 03:34:04;;;;;;;;;5.33;4.00;;;;;21.11;46.87;102083.09;5014921;28;45225;-72
2022/11/30 03:36:29;;;;;;;;;2.00;2.00;;;;;21.10;46.76;102077.00;5016961;28;45234;-73
2022/11/30 03:38:54;;;;;;;;;4.00;3.00;;;;;21.09;46.49;102085.06;5018819;28;46928;-72
2022/11/30 03:41:20;;;;;;;;;3.33;2.33;;;;;21.09;46.80;102083.25;5018644;28;45266;-72
2022/11/30 03:43:45;;;;;;;;;2.00;2.00;;;;;20.98;46.39;102070.97;5018922;28;45343;-72
2022/11/30 03:46:12;;;;;;;;;3.00;2.67;;;;;21.04;46.86;102078.41;5018811;28;45296;-72
2022/11/30 03:48:37;;;;;;;;;3.67;2.33;;;;;21.10;46.42;102092.88;5018342;28;45301;-72
2022/11/30 03:51:04;;;;;;;;;5.00;2.33;;;;;21.11;46.70;102091.03;5018511;28;45312;-72
2022/11/30 03:53:30;;;;;;;;;3.67;2.67;;;;;21.12;46.09;102098.84;5018441;28;45549;-72
2022/11/30 03:56:01;;;;;;;;;3.00;3.00;;;;;21.12;46.68;102098.84;5018391;28;45474;-72
2022/11/30 03:58:26;;;;;;;;;4.33;2.00;;;;;21.12;46.47;102098.00;5017959;28;47473;-72
2022/11/30 04:01:13;;;;;;;;;3.00;3.00;;;;;21.12;45.99;102098.84;5018287;28;45363;-72
2022/11/30 04:03:40;;;;;;;;;3.33;3.00;;;;;21.13;46.32;102099.69;5018142;28;45479;-72
2022/11/30 04:06:07;;;;;;;;;2.33;2.33;;;;;21.00;46.38;102082.25;5018301;28;45380;-72
2022/11/30 04:08:32;;;;;;;;;2.67;2.67;;;;;21.13;46.02;102100.50;5018149;28;46184;-72
2022/11/30 04:10:59;;;;;;;;;3.00;3.00;;;;;21.13;46.27;102097.03;5018160;28;45280;-72
2022/11/30 04:13:25;;;;;;;;;5.00;3.33;;;;;21.12;46.51;102095.34;5018493;28;45307;-72
2022/11/30 04:15:52;;;;;;;;;3.00;3.00;;;;;21.08;46.22;102094.00;5018000;28;45264;-72
2022/11/30 04:18:19;;;;;;;;;3.00;2.33;;;;;21.12;46.44;102106.78;5017590;28;46310;-72
2022/11/30 04:20:45;;;;;;;;;4.00;3.00;;;;;21.12;46.64;102106.78;5018028;28;45611;-72
2022/11/30 04:23:11;;;;;;;;;2.00;2.00;;;;;21.12;46.37;102111.25;5018150;28;45539;-72
2022/11/30 04:25:38;;;;;;;;;2.33;2.33;;;;;21.06;46.45;102100.25;5017852;28;45609;-72
2022/11/30 04:28:23;;;;;;;;;4.67;2.00;;;;;21.12;46.41;102108.59;5017888;28;45634;-72
2022/11/30 04:30:48;;;;;;;;;3.00;3.00;;;;;21.12;46.84;102111.25;5017613;28;45236;-73
2022/11/30 04:33:15;;;;;;;;;2.00;2.00;;;;;21.11;46.36;102120.16;5017649;28;45415;-73
2022/11/30 04:35:44;;;;;;;;;2.67;2.67;;;;;21.10;46.52;102113.19;5017885;28;45296;-72
2022/11/30 04:38:10;;;;;;;;;3.00;3.00;;;;;21.11;46.56;102114.84;5017773;28;47432;-72
2022/11/30 04:40:42;;;;;;;;;3.00;3.00;;;;;21.06;46.72;102120.56;5017514;28;45323;-73
2022/11/30 04:43:08;;;;;;;;;2.00;2.00;;;;;21.10;46.76;102123.78;5018063;28;45343;-72
2022/11/30 04:45:34;;;;;;;;;5.00;4.00;;;;;21.03;46.71;102111.09;5017616;28;45503;-72
2022/11/30 04:47:59;;;;;;;;;1.00;1.00;;;;;21.10;46.60;102131.72;5016388;28;45604;-72
2022/11/30 04:50:27;;;;;;;;;4.67;2.33;;;;;21.10;46.71;102131.72;5017705;28;45410;-72
2022/11/30 04:52:53;;;;;;;;;4.33;3.33;;;;;21.08;46.30;102123.91;5017580;28;45442;-71
2022/11/30 04:55:18;;;;;;;;;3.00;3.00;;;;;21.09;46.58;102122.94;5017315;28;45360;-72
2022/11/30 04:57:45;;;;;;;;;6.00;3.00;;;;;21.09;46.22;102130.03;4999582;28;47004;-72
2022/11/30 05:00:12;;;;;;;;;2.67;2.67;;;;;20.99;46.88;102111.50;5017268;28;45523;-73
2022/11/30 05:02:37;;;;;;;;;3.33;3.00;;;;;21.09;46.58;102130.88;5017158;28;45161;-72
2022/11/30 05:05:03;;;;;;;;;2.00;2.00;;;;;21.09;46.43;102130.88;5017297;28;45375;-72
2022/11/30 05:07:28;;;;;;;;;3.00;3.00;;;;;21.09;46.63;102133.53;5017294;28;46252;-72
2022/11/30 05:09:53;;;;;;;;;3.00;3.00;;;;;21.07;46.62;102135.50;5017246;28;45339;-72
2022/11/30 05:12:19;;;;;;;;;3.33;2.00;;;;;21.08;46.58;102136.31;5017255;28;45333;-72
2022/11/30 05:14:44;;;;;;;;;5.00;2.75;;;;;21.00;46.52;102123.78;5017188;28;45494;-72
2022/11/30 05:17:09;;;;;;;;;2.00;2.00;;;;;21.06;46.24;102132.00;5016848;28;46349;-72
2022/11/30 05:19:34;;;;;;;;;2.33;2.33;;;;;21.08;46.29;102137.13;5017189;28;45423;-72
2022/11/30 05:22:00;;;;;;;;;4.00;4.00;;;;;21.04;46.32;102133.13;5016054;28;45376;-72
2022/11/30 05:24:25;;;;;;;;;2.33;2.33;;;;;21.08;46.42;102138.97;5017225;28;45514;-72
2022/11/30 05:26:50;;;;;;;;;4.00;2.00;;;;;21.10;45.97;102144.94;5016970;28;46297;-72
2022/11/30 05:29:16;;;;;;;;;2.00;2.00;;;;;21.10;46.31;102139.66;5016590;28;45435;-71
2022/11/30 05:31:41;;;;;;;;;3.33;3.33;;;;;21.11;46.04;102146.59;5017262;28;45386;-72
2022/11/30 05:34:06;;;;;;;;;2.00;2.00;;;;;21.11;46.43;102143.97;5017035;28;45390;-71
2022/11/30 05:36:32;;;;;;;;;4.33;2.33;;;;;21.11;46.07;102151.91;5016736;28;46194;-72
2022/11/30 05:38:57;;;;;;;;;3.00;3.00;;;;;21.10;46.07;102151.09;5016652;28;47401;-72
2022/11/30 05:41:22;;;;;;;;;2.00;2.00;;;;;20.98;46.43;102129.19;5016880;28;45468;-72
2022/11/30 05:43:47;;;;;;;;;4.00;3.00;;;;;21.12;46.19;102156.22;4998817;28;45389;-72
2022/11/30 05:46:13;;;;;;;;;3.00;3.00;;;;;21.07;46.29;102156.66;5016655;28;45941;-72
2022/11/30 05:48:38;;;;;;;;;2.00;2.00;;;;;21.12;46.21;102162.34;5016761;28;45341;-72
2022/11/30 05:51:06;;;;;;;;;3.00;2.33;;;;;21.13;46.38;102160.56;5016777;28;45307;-72
2022/11/30 05:53:32;;;;;;;;;4.00;3.00;;;;;21.03;46.19;102149.97;5016602;28;45323;-72
2022/11/30 05:56:04;;;;;;;;;3.00;3.00;;;;;21.12;46.26;102164.16;5016228;28;45373;-72
2022/11/30 05:58:30;;;;;;;;;1.67;1.00;;;;;21.06;46.10;102157.63;5016241;28;45308;-72
2022/11/30 06:00:55;;;;;;;;;2.67;2.00;;;;;21.11;46.65;102163.31;5016583;28;45419;-72
2022/11/30 06:03:20;;;;;;;;;4.00;3.00;;;;;21.11;46.46;102168.63;4998922;28;45356;-72
2022/11/30 06:05:50;;;;;;;;;4.00;1.67;;;;;21.10;46.56;102160.84;5016252;28;47063;-72
2022/11/30 06:08:15;;;;;;;;;1.33;1.00;;;;;21.09;46.16;102164.44;5016429;28;45252;-72
2022/11/30 06:10:40;;;;;;;;;2.00;2.00;;;;;21.10;46.05;102174.06;5016385;28;45425;-72
2022/11/30 06:13:07;;;;;;;;;3.00;2.00;;;;;21.10;46.37;102174.91;5016181;28;45487;-72
2022/11/30 06:15:32;;;;;;;;;2.33;2.00;;;;;21.03;46.51;102150.81;5016076;28;46442;-72
2022/11/30 06:17:57;;;;;;;;;3.00;3.00;;;;;21.09;46.34;102164.44;5016038;28;45299;-72
2022/11/30 06:20:23;;;;;;;;;2.67;2.67;;;;;21.09;46.34;102164.44;5016358;28;45345;-72
2022/11/30 06:22:48;;;;;;;;;4.33;2.33;;;;;21.07;46.25;102159.31;5016257;28;45319;-72
2022/11/30 06:25:14;;;;;;;;;4.00;4.00;;;;;21.07;46.38;102167.25;5015917;28;45356;-72
2022/11/30 06:27:39;;;;;;;;;3.67;2.67;;;;;21.03;46.52;102160.53;5015731;28;45450;-72
2022/11/30 06:30:05;;;;;;;;;4.00;4.00;;;;;21.08;46.06;102171.53;5016135;28;45275;-72
2022/11/30 06:32:30;;;;;;;;;4.33;2.00;;;;;21.06;46.55;102161.09;5016261;28;45288;-72
2022/11/30 06:34:56;;;;;;;;;3.00;3.00;;;;;21.06;46.07;102161.09;5015638;28;45320;-72
2022/11/30 06:37:21;;;;;;;;;2.00;2.00;;;;;21.08;45.91;102162.78;5015988;28;45302;-72
2022/11/30 06:39:46;;;;;;;;;3.00;3.00;;;;;21.07;46.54;102167.25;5016108;28;45352;-72
2022/11/30 06:42:12;;;;;;;;;3.00;2.00;;;;;21.06;46.10;102169.06;5015583;28;45204;-72
2022/11/30 06:44:37;;;;;;;;;3.33;3.00;;;;;21.06;46.02;102168.22;5015613;28;46197;-74
2022/11/30 06:47:02;;;;;;;;;4.00;4.00;;;;;21.06;46.25;102170.84;5015899;28;45402;-76
2022/11/30 06:49:28;;;;;;;;;3.67;3.67;;;;;21.06;46.25;102173.50;5015912;28;45374;-72
2022/11/30 06:51:53;;;;;;;;;2.00;2.00;;;;;21.05;46.16;102174.50;5016059;28;45339;-72
2022/11/30 06:54:18;;;;;;;;;4.00;2.00;;;;;20.94;46.36;102162.22;5015351;28;46249;-72
2022/11/30 06:56:44;;;;;;;;;3.00;3.00;;;;;21.06;46.65;102187.56;5009345;28;45379;-72
2022/11/30 06:59:09;;;;;;;;;3.00;2.00;;;;;21.05;46.88;102180.59;5014636;28;45426;-75
2022/11/30 07:01:34;;;;;;;;;1.33;1.33;;;;;21.07;46.71;102177.81;4999172;28;45391;-73
2022/11/30 07:04:00;;;;;;;;;3.00;3.00;;;;;20.92;46.44;102161.53;4995559;28;52582;-73
2022/11/30 07:06:25;;;;;;;;;3.33;3.33;;;;;21.07;46.55;102180.47;5014057;28;45363;-74
2022/11/30 07:08:50;;;;;;;;;3.00;3.00;;;;;21.08;46.69;102182.13;5014908;28;45383;-74
2022/11/30 07:11:16;;;;;;;;;1.67;1.67;;;;;21.08;46.86;102184.78;5017263;28;45655;-73
2022/11/30 07:13:41;;;;;;;;;2.67;2.67;;;;;21.10;46.42;102185.50;5021393;28;45431;-73
2022/11/30 07:16:09;;;;;;;;;5.00;2.33;;;;;21.10;46.48;102184.66;5020844;28;46419;-74
2022/11/30 07:18:35;;;;;;;;;5.33;3.00;;;;;21.11;46.85;102189.78;5003177;28;45454;-73
2022/11/30 07:21:03;;;;;;;;;2.00;2.00;;;;;21.11;46.59;102191.59;5021088;28;45526;-74
2022/11/30 07:26:13;;;;;;;;;1.33;1.00;;;;;21.03;46.42;102185.19;5019094;28;45243;-76
2022/11/30 07:28:40;;;;;;;;;2.67;2.67;;;;;21.12;47.00;102198.56;5020684;28;45359;-76
2022/11/30 07:31:20;;;;;;;;;4.00;3.00;;;;;21.02;46.88;102180.91;5021653;28;45271;-75
2022/11/30 07:33:46;;;;;;;;;2.33;2.33;;;;;21.04;46.94;102184.22;5021068;28;46281;-76
2022/11/30 07:36:12;;;;;;;;;4.00;4.00;;;;;21.09;46.69;102204.97;5021296;28;45327;-75
2022/11/30 07:38:38;;;;;;;;;2.00;2.00;;;;;21.11;46.61;102210.97;5021397;28;45406;-76
2022/11/30 07:41:04;;;;;;;;;5.33;2.33;;;;;21.03;46.65;102198.44;5021344;28;45375;-76
2022/11/30 07:43:29;;;;;;;;;0.67;0.67;;;;;21.11;46.61;102212.75;5021034;28;46017;-75
2022/11/30 07:45:55;;;;;;;;;2.67;2.67;;;;;21.05;46.68;102214.19;5021559;28;45483;-75
2022/11/30 07:48:21;;;;;;;;;3.33;3.00;;;;;21.04;46.43;102202.75;5021427;28;45351;-76
2022/11/30 07:50:47;;;;;;;;;2.33;2.00;;;;;21.10;46.74;102222.53;5021474;28;45613;-75
2022/11/30 07:53:12;;;;;;;;;3.33;2.00;;;;;21.10;46.63;102227.84;5021081;28;46317;-75
2022/11/30 07:55:37;;;;;;;;;3.00;2.67;;;;;21.10;46.70;102219.06;5020762;28;45406;-75
2022/11/30 07:58:03;;;;;;;;;3.67;3.00;;;;;21.05;46.71;102224.78;5021478;28;45332;-75
2022/11/30 08:00:28;;;;;;;;;3.67;3.67;;;;;21.10;46.69;102238.41;5020430;28;45393;-74
2022/11/30 08:02:53;;;;;;;;;6.00;4.00;;;;;21.02;46.84;102232.97;5019204;28;46245;-76
2022/11/30 08:05:19;;;;;;;;;3.67;3.67;;;;;20.76;46.60;102193.81;5020772;28;45311;-75
2022/11/30 08:07:47;;;;;;;;;3.00;3.00;;;;;20.96;46.57;102226.41;5020663;28;45386;-75
2022/11/30 08:10:13;;;;;;;;;2.00;2.00;;;;;21.03;46.64;102232.84;5020963;28;45666;-76
2022/11/30 08:12:38;;;;;;;;;3.00;2.00;;;;;21.08;46.34;102236.88;5020267;28;47077;-76
2022/11/30 08:15:04;;;;;;;;;2.33;2.33;;;;;21.08;46.80;102240.34;5021087;28;45400;-75
2022/11/30 08:17:30;;;;;;;;;3.00;2.33;;;;;21.09;47.00;102241.19;5020197;28;45391;-74
2022/11/30 08:19:55;;;;;;;;;2.67;2.67;;;;;21.05;46.82;102244.09;5020890;28;45390;-76
2022/11/30 08:22:20;;;;;;;;;3.00;3.00;;;;;21.03;46.88;102237.28;5018392;28;51007;-75
2022/11/30 08:24:46;;;;;;;;;5.00;4.00;;;;;21.08;46.37;102247.47;4995708;28;45946;-76
2022/11/30 08:27:11;;;;;;;;;2.67;2.67;;;;;21.05;46.87;102249.41;5006669;28;45539;-76
2022/11/30 08:29:36;;;;;;;;;2.33;2.33;;;;;21.08;46.56;102256.22;5017051;28;45418;-76
2022/11/30 08:32:02;;;;;;;;;2.67;2.67;;;;;21.09;46.26;102251.78;5016635;28;48336;-75
2022/11/30 08:34:27;;;;;;;;;3.00;3.00;;;;;21.05;46.82;102256.53;5017421;28;45394;-75
2022/11/30 08:36:52;;;;;;;;;3.67;3.00;;;;;21.08;46.48;102264.16;4999127;28;45518;-75
2022/11/30 08:39:18;;;;;;;;;3.00;3.00;;;;;21.10;46.62;102271.97;5017303;28;45506;-75
2022/11/30 08:41:43;;;;;;;;;3.00;2.33;;;;;21.09;46.22;102270.28;5016633;28;45911;-75
2022/11/30 08:44:08;;;;;;;;;3.00;3.00;;;;;21.10;46.26;102259.59;5017239;28;45446;-76
2022/11/30 08:46:35;;;;;;;;;3.67;3.00;;;;;21.10;46.35;102270.19;5017037;28;45332;-77
2022/11/30 08:49:01;;;;;;;;;2.00;2.00;;;;;21.11;46.55;102274.47;5016831;28;45590;-76
2022/11/30 08:51:26;;;;;;;;;3.33;2.33;;;;;21.12;46.72;102272.66;5015695;28;46409;-75
2022/11/30 08:53:51;;;;;;;;;3.00;3.00;;;;;21.12;46.06;102272.66;5015348;28;45480;-75
2022/11/30 08:56:19;;;;;;;;;2.00;2.00;;;;;21.12;46.76;102283.25;5017019;28;45287;-75
2022/11/30 08:58:46;;;;;;;;;3.33;3.33;;;;;21.10;46.51;102275.47;5015469;28;45546;-75
2022/11/30 09:01:25;;;;;;;;;3.00;3.00;;;;;21.11;46.45;102277.13;5016354;28;45460;-76
2022/11/30 09:03:52;;;;;;;;;3.33;3.00;;;;;21.10;46.58;102278.13;5016096;28;45470;-75
2022/11/30 09:06:21;;;;;;;;;3.00;3.00;;;;;21.10;46.28;102277.28;5015831;28;45391;-75
2022/11/30 09:08:48;;;;;;;;;4.00;4.00;;;;;21.10;46.11;102277.28;5015551;28;45446;-76
2022/11/30 09:11:17;;;;;;;;;4.00;2.67;;;;;21.10;46.32;102272.81;5015971;28;45445;-75
2022/11/30 09:13:43;;;;;;;;;2.00;2.00;;;;;21.09;46.30;102279.09;5015943;28;45330;-76
2022/11/30 09:16:10;;;;;;;;;3.00;3.00;;;;;21.10;46.09;102277.28;5015238;28;45423;-77
2022/11/30 09:18:36;;;;;;;;;2.33;2.33;;;;;21.09;46.08;102276.44;5015522;28;45474;-75
2022/11/30 09:21:04;;;;;;;;;5.33;2.00;;;;;21.09;46.05;102273.78;5016304;28;46077;-76
2022/11/30 09:23:30;;;;;;;;;5.33;1.67;;;;;21.09;46.22;102280.88;5014829;28;45541;-76
2022/11/30 09:25:58;;;;;;;;;4.00;4.00;;;;;21.08;46.49;102281.88;5015811;28;45384;-75
2022/11/30 09:28:24;;;;;;;;;4.00;2.33;;;;;21.07;46.50;102281.03;5015078;28;45619;-75
2022/11/30 09:30:49;;;;;;;;;3.00;2.00;;;;;21.08;46.31;102289.81;5015553;28;45919;-76
2022/11/30 09:33:15;;;;;;;;;3.00;2.00;;;;;21.06;46.16;102288.13;5015079;28;45643;-76
2022/11/30 09:35:40;;;;;;;;;4.33;3.67;;;;;21.07;46.55;102291.63;5015638;28;45465;-76
2022/11/30 09:38:05;;;;;;;;;2.33;2.33;;;;;21.06;46.27;102298.72;5014973;28;48296;-76
2022/11/30 09:40:33;;;;;;;;;3.00;3.00;;;;;21.06;46.54;102297.88;5014992;28;46928;-76
2022/11/30 09:43:47;;;;;;;;;3.00;2.00;;;;;21.06;46.55;102300.53;5015182;28;45482;-76
2022/11/30 09:46:12;;;;;;;;;3.67;3.33;;;;;21.00;46.24;102290.47;5007721;28;45460;-76
2022/11/30 09:48:59;;;;;;;;;2.00;2.00;;;;;21.06;46.29;102300.53;5014685;28;45391;-75
2022/11/30 09:51:43;;;;;;;;;2.67;2.67;;;;;21.05;46.57;102307.63;5015020;28;47060;-75
2022/11/30 09:54:15;;;;;;;;;4.00;2.67;;;;;21.06;46.67;102305.81;5015258;28;45534;-75
2022/11/30 09:56:42;;;;;;;;;5.00;3.67;;;;;21.07;45.79;102310.16;5014651;28;45490;-75
2022/11/30 09:59:19;;;;;;;;;2.67;2.67;;;;;21.05;46.29;102312.91;4997480;28;45506;-76
2022/11/30 10:01:47;;;;;;;;;4.00;4.00;;;;;21.05;46.23;102306.81;5014619;28;46384;-76
2022/11/30 10:04:27;;;;;;;;;3.00;3.00;;;;;20.93;46.16;102290.16;5014927;28;45384;-77
2022/11/30 10:07:13;;;;;;;;;2.67;2.67;;;;;21.05;46.40;102304.16;5014507;28;45991;-75
2022/11/30 10:09:54;;;;;;;;;5.75;3.25;;;;;21.06;46.40;102309.31;5015191;28;45531;-75
2022/11/30 10:12:29;;;;;;;;;4.00;3.33;;;;;21.05;46.22;102302.31;5015032;28;46204;-75
2022/11/30 10:15:19;;;;;;;;;4.33;4.00;;;;;21.07;45.88;102304.84;5015091;28;46372;-76
2022/11/30 10:18:02;;;;;;;;;6.00;5.00;;;;;21.06;45.97;102309.31;5016020;28;45284;-75
2022/11/30 10:20:33;;;;;;;;;3.00;3.00;;;;;21.08;45.65;102308.34;5015633;28;45348;-76
2022/11/30 10:23:08;;;;;;;;;3.67;2.67;;;;;21.09;45.62;102310.00;5015846;28;45407;-75
2022/11/30 10:25:36;;;;;;;;;3.67;3.67;;;;;21.10;46.01;102303.75;5015671;28;45359;-76
2022/11/30 10:28:15;;;;;;;;;3.00;3.00;;;;;21.10;45.67;102307.22;5016044;28;45341;-76
2022/11/30 10:30:41;;;;;;;;;3.00;3.00;;;;;20.95;45.84;102281.13;5015729;28;45355;-75
2022/11/30 10:33:17;;;;;;;;;2.67;2.00;;;;;21.06;46.17;102293.44;5015782;28;46911;-75
2022/11/30 10:35:55;;;;;;;;;4.33;3.00;;;;;21.04;45.84;102290.09;5015415;28;45382;-75
2022/11/30 10:38:29;;;;;;;;;5.00;2.00;;;;;21.08;46.02;102295.09;5015932;28;45330;-76
2022/11/30 10:41:04;;;;;;;;;4.00;4.00;;;;;21.08;46.00;102295.91;5015666;28;45470;-75
2022/11/30 10:43:31;;;;;;;;;5.00;3.00;;;;;21.06;45.94;102289.94;5015593;28;46432;-75
2022/11/30 10:45:57;;;;;;;;;4.67;4.67;;;;;21.05;45.44;102291.75;5014647;28;45399;-74
2022/11/30 10:48:50;;;;;;;;;4.33;4.33;;;;;21.01;45.65;102279.78;5015396;28;45391;-74
2022/11/30 10:51:16;;;;;;;;;4.25;4.25;;;;;21.05;45.67;102278.50;5015789;28;45465;-75
2022/11/30 10:53:41;;;;;;;;;4.67;3.67;;;;;21.04;45.52;102290.09;5015388;28;45443;-75
2022/11/30 10:56:14;;;;;;;;;4.00;4.00;;;;;21.01;45.52;102282.41;5015250;28;45446;-75
2022/11/30 10:59:09;;;;;;;;;2.00;2.00;;;;;21.06;45.84;102285.47;5015309;28;45392;-75
2022/11/30 11:01:38;;;;;;;;;3.67;3.00;;;;;21.04;45.91;102282.16;5015465;28;45624;-75
2022/11/30 11:04:29;;;;;;;;;4.00;4.00;;;;;21.05;45.60;102277.69;5014822;28;46136;-75
2022/11/30 11:07:15;;;;;;;;;3.67;3.00;;;;;21.04;45.92;102283.94;5012121;28;45405;-76
2022/11/30 11:09:45;;;;;;;;;3.33;3.33;;;;;21.01;45.80;102276.25;5014991;28;45343;-76
2022/11/30 11:12:19;;;;;;;;;4.00;3.67;;;;;21.04;45.69;102274.22;5015356;28;45263;-76
2022/11/30 11:14:45;;;;;;;;;0.33;0.33;;;;;20.98;45.80;102252.72;5014754;28;45391;-76
2022/11/30 11:17:16;;;;;;;;;2.00;2.00;;;;;21.04;46.00;102262.78;5015184;28;45323;-76
2022/11/30 11:19:43;;;;;;;;;3.00;3.00;;;;;21.03;45.42;102264.59;4997536;28;45387;-75
2022/11/30 11:22:26;;;;;;;;;3.67;3.67;;;;;21.03;45.85;102272.53;5015265;28;45475;-76
2022/11/30 11:25:18;;;;;;;;;3.00;3.00;;;;;21.04;45.71;102262.78;5014608;28;47306;-76
2022/11/30 11:27:54;;;;;;;;;7.00;4.00;;;;;21.03;45.44;102259.28;5014497;28;46190;-76
2022/11/30 11:30:25;;;;;;;;;7.00;4.00;;;;;21.03;45.85;102263.75;5014964;28;45347;-76
2022/11/30 11:32:56;;;;;;;;;5.00;3.67;;;;;21.03;45.60;102269.03;5014786;28;45430;-76